CYQX

Gander International Airport

Gander, Canada
METAR CYQX 201300Z 19012KT 20SM SCT060 BKN092 BKN160 OVC250 01/M02 A3010 RMK SC4AC2AS1CS1 SLP202
Observed Flight Rules
Oct-20 @ 13:00 UTC (58 minutes ago) Visual Flight Rules
Wind Visibility Clouds
190° at 12 knots 20 miles
  • Scattered at 6,000' AGL
  • Broken at 9,200' AGL
  • Broken at 16,000' AGL
  • Overcast at 25,000' AGL
Temperatures Readings
Current 1°C / 34°F
Dewpoint -2°C / 28°F
Humidity 81%
Altimeter 30.1" Hg
Pressure 1020.2 hPa
Elevation 151
METAR CYQX 201300Z 19012KT 20SM SCT060 BKN092 BKN160 OVC250 01/M02 A3010 RMK SC4AC2AS1CS1 SLP202
Observed Flight Rules
Oct-20 @ 13:00 UTC
(58 minutes ago)
VFR
Wind Visibility
190° at 12 knots 20 miles
Clouds
  • Scattered at 6,000' AGL
  • Broken at 9,200' AGL
  • Broken at 16,000' AGL
  • Overcast at 25,000' AGL
Temperature Dewpoint
1°C / 34°F -2°C / 28°F
Humidity Altimeter Pressure
81% 30.1" Hg 1020.2 hPa